KMPZ/MPZ METAR and TAF weather

Enter ICAO airport designator
Station Type Date Time Source
KMPZ METAR 2019/08/22 19:55 UTC NOAA

KMPZ 221955Z AUTO 04005KT 10SM CLR 27/16 A3002 RMK AO2


Station Type Date Time Source
KMPZ Decoded METAR 2019/08/22 19:55 UTC NOAA

Station name not available
Aug 22, 2019 - 03:55 PM EDT / 2019.08.22 1955 UTC
Wind: from the NE (040 degrees) at 6 MPH (5 KT):0
Visibility: 10 mile(s):0
Sky conditions: clear
Temperature: 80 F (27 C)
Dew Point: 60 F (16 C)
Relative Humidity: 50%
Pressure (altimeter): 30.02 in. Hg (1016 hPa)
ob: KMPZ 221955Z AUTO 04005KT 10SM CLR 27/16 A3002 RMK AO2
cycle: 20

Station Type Date Time Source
KMPZ TAF UTC NOAA

Error!

Example: see airport list